createdAt,value
2023-03-21T00:00:34.216Z,9.80
2023-03-21T00:03:01.282Z,9.74
2023-03-21T00:05:27.767Z,9.71
2023-03-21T00:07:54.527Z,9.74
2023-03-21T00:10:33.112Z,9.75
2023-03-21T00:13:05.908Z,9.76
2023-03-21T00:15:41.328Z,9.78
2023-03-21T00:18:12.696Z,9.77
2023-03-21T00:20:39.082Z,9.79
2023-03-21T00:23:05.634Z,9.79
2023-03-21T00:25:32.990Z,9.79
2023-03-21T00:28:07.916Z,9.78
2023-03-21T00:30:35.402Z,9.76
2023-03-21T00:33:12.092Z,9.76
2023-03-21T00:35:58.357Z,9.75
2023-03-21T00:38:28.854Z,9.79
2023-03-21T00:40:56.835Z,9.80
2023-03-21T00:43:30.015Z,9.79
2023-03-21T00:46:00.923Z,9.73
2023-03-21T00:48:28.105Z,9.74
2023-03-21T00:50:57.067Z,9.74
2023-03-21T00:53:23.852Z,9.72
2023-03-21T00:55:50.306Z,9.73
2023-03-21T00:58:17.623Z,9.73
2023-03-21T01:00:44.712Z,9.74
2023-03-21T01:03:23.770Z,9.74
2023-03-21T01:06:06.916Z,9.71
2023-03-21T01:08:50.505Z,9.69
2023-03-21T01:11:24.344Z,9.69
2023-03-21T01:13:56.272Z,9.71
2023-03-21T01:16:28.848Z,9.71
2023-03-21T01:18:55.996Z,9.73
2023-03-21T01:21:22.433Z,9.72
2023-03-21T01:23:48.837Z,9.72
2023-03-21T01:26:15.638Z,9.69
2023-03-21T01:28:45.340Z,9.71
2023-03-21T01:31:15.171Z,9.65
2023-03-21T01:33:42.634Z,9.67
2023-03-21T01:36:23.415Z,9.70
2023-03-21T01:38:53.073Z,9.71
2023-03-21T01:41:47.762Z,9.71
2023-03-21T01:44:20.332Z,9.70
2023-03-21T01:47:09.795Z,9.66
2023-03-21T01:49:49.514Z,9.70
2023-03-21T01:52:36.375Z,9.73
2023-03-21T01:55:11.799Z,9.68
2023-03-21T01:58:04.742Z,9.69
2023-03-21T02:00:38.279Z,9.71
2023-03-21T02:03:33.269Z,9.70
2023-03-21T02:06:18.369Z,9.71
2023-03-21T02:08:48.698Z,9.69
2023-03-21T02:11:16.859Z,9.70
2023-03-21T02:13:43.717Z,9.70
2023-03-21T02:16:35.271Z,9.70
2023-03-21T02:19:37.330Z,9.69
2023-03-21T02:22:32.404Z,9.66
2023-03-21T02:25:36.394Z,9.62
2023-03-21T02:28:11.733Z,9.60
2023-03-21T02:30:52.122Z,9.65
2023-03-21T02:33:39.273Z,9.66
2023-03-21T02:36:26.226Z,9.63
2023-03-21T02:39:08.232Z,9.65
2023-03-21T02:41:49.755Z,9.61
2023-03-21T02:44:39.246Z,9.61
2023-03-21T02:47:13.199Z,9.62
2023-03-21T02:50:03.354Z,9.64
2023-03-21T02:52:39.130Z,9.62
2023-03-21T02:55:15.362Z,9.63
2023-03-21T02:58:12.938Z,9.64
2023-03-21T03:00:46.036Z,9.68
2023-03-21T03:03:31.749Z,9.66
2023-03-21T03:06:03.970Z,9.68
2023-03-21T03:09:01.281Z,9.64
2023-03-21T03:11:34.144Z,9.64
2023-03-21T03:17:27.960Z,9.66
2023-03-21T03:20:20.922Z,9.70
2023-03-21T03:23:07.413Z,9.69
2023-03-21T03:26:15.407Z,9.68
2023-03-21T03:28:48.775Z,9.66
2023-03-21T03:31:25.934Z,9.69
2023-03-21T03:34:04.360Z,9.65
2023-03-21T03:36:39.258Z,9.64
2023-03-21T03:39:14.445Z,9.60
2023-03-21T03:42:07.793Z,9.62
2023-03-21T03:44:41.315Z,9.64
2023-03-21T03:47:20.245Z,9.69
2023-03-21T03:50:03.981Z,9.63
2023-03-21T03:52:55.391Z,9.59
2023-03-21T03:55:27.090Z,9.57
2023-03-21T03:57:56.100Z,9.51
2023-03-21T04:00:22.756Z,9.53
2023-03-21T04:02:50.867Z,9.57
2023-03-21T04:05:22.695Z,9.55
2023-03-21T04:07:50.946Z,9.58
2023-03-21T04:10:21.107Z,9.56
2023-03-21T04:12:47.720Z,9.55
2023-03-21T04:15:32.696Z,9.52
2023-03-21T04:18:06.341Z,9.54
2023-03-21T04:20:37.393Z,9.56
2023-03-21T04:23:06.059Z,9.57
2023-03-21T04:25:38.635Z,9.54
2023-03-21T04:28:07.184Z,9.48
2023-03-21T04:30:39.266Z,9.48
2023-03-21T04:33:12.995Z,9.48
2023-03-21T04:35:45.683Z,9.49
2023-03-21T04:38:13.877Z,9.49
2023-03-21T04:40:40.542Z,9.49
2023-03-21T04:43:07.469Z,9.53
2023-03-21T04:45:37.209Z,9.51
2023-03-21T04:48:04.322Z,9.47
2023-03-21T04:50:32.259Z,9.49
2023-03-21T04:52:59.690Z,9.46
2023-03-21T04:55:28.008Z,9.43
2023-03-21T04:57:54.658Z,9.37
2023-03-21T05:00:23.048Z,9.40
2023-03-21T05:02:49.580Z,9.45
2023-03-21T05:05:16.170Z,9.44
2023-03-21T05:07:42.672Z,9.45
2023-03-21T05:10:12.001Z,9.46
2023-03-21T05:12:41.200Z,9.44
2023-03-21T05:15:08.493Z,9.45
2023-03-21T05:17:36.575Z,9.45
2023-03-21T05:20:04.752Z,9.47
2023-03-21T05:22:40.826Z,9.44
2023-03-21T05:25:12.248Z,9.45
2023-03-21T05:28:01.901Z,9.47
2023-03-21T05:30:30.468Z,9.45
2023-03-21T05:33:00.167Z,9.44
2023-03-21T05:35:27.086Z,9.44
2023-03-21T05:37:57.506Z,9.43
2023-03-21T05:40:25.681Z,9.45
2023-03-21T05:42:55.747Z,9.46
2023-03-21T05:45:23.194Z,9.50
2023-03-21T05:47:51.607Z,9.50
2023-03-21T05:50:20.701Z,9.45
2023-03-21T05:53:00.441Z,9.48
2023-03-21T05:55:26.982Z,9.51
2023-03-21T05:57:53.864Z,9.51
2023-03-21T06:00:25.707Z,9.56
2023-03-21T06:03:10.176Z,9.57
2023-03-21T06:05:50.734Z,9.57
2023-03-21T06:08:24.944Z,9.56
2023-03-21T06:10:51.636Z,9.59
2023-03-21T06:13:18.259Z,9.58
2023-03-21T06:15:45.429Z,9.60
2023-03-21T06:18:16.745Z,9.56
2023-03-21T06:20:54.729Z,9.57
2023-03-21T06:23:21.609Z,9.62
2023-03-21T06:25:48.354Z,9.64
2023-03-21T06:28:15.069Z,9.65
2023-03-21T06:30:41.723Z,9.62
2023-03-21T06:33:19.123Z,9.64
2023-03-21T06:35:51.830Z,9.63
2023-03-21T06:38:19.138Z,9.64
2023-03-21T06:40:47.178Z,9.61
2023-03-21T06:43:14.310Z,9.61
2023-03-21T06:45:41.005Z,9.63
2023-03-21T06:48:10.266Z,9.62
2023-03-21T06:50:50.298Z,9.64
2023-03-21T06:53:29.964Z,9.61
2023-03-21T06:56:15.937Z,9.62
2023-03-21T06:58:44.313Z,9.61
2023-03-21T07:01:20.972Z,9.62
2023-03-21T07:04:01.986Z,9.62
2023-03-21T07:06:30.240Z,9.57
2023-03-21T07:08:56.959Z,9.54
2023-03-21T07:11:25.207Z,9.62
2023-03-21T07:13:52.295Z,9.79
2023-03-21T07:16:19.481Z,9.79
2023-03-21T07:18:46.595Z,9.75
2023-03-21T07:21:13.850Z,9.73
2023-03-21T07:23:40.390Z,9.73
2023-03-21T07:26:08.552Z,9.76
2023-03-21T07:28:35.611Z,9.70
2023-03-21T07:31:06.501Z,9.59
2023-03-21T07:33:33.919Z,9.62
2023-03-21T07:36:01.983Z,9.63
2023-03-21T07:38:31.150Z,9.66
2023-03-21T07:41:00.625Z,9.64
2023-03-21T07:43:30.587Z,9.69
2023-03-21T07:45:59.517Z,9.71
2023-03-21T07:48:27.713Z,9.73
2023-03-21T07:50:54.118Z,9.73
2023-03-21T07:53:20.618Z,9.74
2023-03-21T07:55:56.567Z,9.72
2023-03-21T07:58:25.643Z,9.73
2023-03-21T08:00:52.294Z,9.73
2023-03-21T08:03:19.469Z,9.74
2023-03-21T08:05:46.560Z,9.73
2023-03-21T08:08:13.159Z,9.73
2023-03-21T08:10:39.922Z,9.72
2023-03-21T08:13:06.415Z,9.72
2023-03-21T08:15:32.904Z,9.73
2023-03-21T08:18:00.241Z,9.69
2023-03-21T08:20:27.357Z,9.69
2023-03-21T08:22:53.975Z,9.73
2023-03-21T08:25:22.500Z,9.73
2023-03-21T08:27:50.794Z,9.69
2023-03-21T08:30:20.133Z,9.68
2023-03-21T08:32:46.677Z,9.66
2023-03-21T08:35:15.860Z,9.69
2023-03-21T08:37:43.519Z,9.70
2023-03-21T08:40:13.878Z,9.71
2023-03-21T08:42:41.263Z,9.76
2023-03-21T08:45:09.153Z,9.81
2023-03-21T08:47:35.620Z,9.80
2023-03-21T08:50:02.127Z,9.84
2023-03-21T08:52:28.739Z,9.85
2023-03-21T08:54:55.262Z,9.90
2023-03-21T08:57:21.890Z,9.96
2023-03-21T08:59:48.454Z,9.99
2023-03-21T09:02:17.004Z,10.05
2023-03-21T09:04:44.840Z,10.08
2023-03-21T09:07:14.201Z,10.08
2023-03-21T09:09:41.608Z,10.07
2023-03-21T09:12:08.352Z,10.13
2023-03-21T09:14:35.352Z,10.19
2023-03-21T09:17:01.848Z,10.28
2023-03-21T09:19:28.302Z,10.32
2023-03-21T09:21:55.533Z,10.31
2023-03-21T09:24:21.945Z,10.31
2023-03-21T09:26:53.092Z,10.38
2023-03-21T09:29:21.386Z,10.42
2023-03-21T09:31:48.152Z,10.47
2023-03-21T09:34:15.603Z,10.43
2023-03-21T09:36:44.104Z,10.37
2023-03-21T09:39:11.979Z,10.48
2023-03-21T09:41:41.953Z,10.48
2023-03-21T09:44:22.694Z,10.47
2023-03-21T09:47:00.423Z,10.43
2023-03-21T09:49:35.187Z,10.48
2023-03-21T09:52:09.461Z,10.51
2023-03-21T09:54:40.445Z,10.56
2023-03-21T09:57:33.525Z,10.58
2023-03-21T10:00:11.253Z,10.56
2023-03-21T10:02:47.091Z,10.61
2023-03-21T10:05:35.528Z,10.66
2023-03-21T10:08:27.173Z,10.67
2023-03-21T10:10:56.914Z,10.63
2023-03-21T10:13:27.633Z,10.67
2023-03-21T10:16:00.218Z,10.75
2023-03-21T10:18:30.150Z,10.80
2023-03-21T10:20:57.346Z,10.77
2023-03-21T10:23:28.619Z,10.82
2023-03-21T10:25:59.350Z,10.83
2023-03-21T10:28:34.505Z,10.92
2023-03-21T10:31:09.345Z,11.04
2023-03-21T10:33:39.509Z,11.12
2023-03-21T10:36:11.012Z,11.16
2023-03-21T10:38:43.482Z,11.18
2023-03-21T10:41:11.639Z,11.23
2023-03-21T10:43:40.790Z,11.26
2023-03-21T10:46:12.944Z,11.34
2023-03-21T10:48:46.144Z,11.20
2023-03-21T10:51:19.480Z,11.22
2023-03-21T10:54:00.878Z,11.31
2023-03-21T10:56:31.066Z,11.38
2023-03-21T10:59:01.473Z,11.43
2023-03-21T11:01:30.306Z,11.47
2023-03-21T11:04:00.907Z,11.52
2023-03-21T11:06:27.618Z,11.47
2023-03-21T11:08:56.614Z,11.37
2023-03-21T11:11:29.268Z,11.34
2023-03-21T11:13:59.898Z,11.29
2023-03-21T11:16:36.222Z,11.29
2023-03-21T11:19:16.344Z,11.27
2023-03-21T11:21:43.788Z,11.16
2023-03-21T11:24:16.152Z,11.20
2023-03-21T11:26:45.984Z,11.21
2023-03-21T11:29:21.416Z,11.29
2023-03-21T11:31:48.303Z,11.34
2023-03-21T11:34:27.085Z,11.39
2023-03-21T11:36:59.228Z,11.38
2023-03-21T11:39:39.659Z,11.40
2023-03-21T11:42:26.936Z,11.50
2023-03-21T11:45:12.206Z,11.55
2023-03-21T11:47:39.539Z,11.63
2023-03-21T11:50:28.116Z,11.68
2023-03-21T11:53:22.550Z,11.76
2023-03-21T11:56:26.484Z,11.78
2023-03-21T11:59:01.190Z,11.72
2023-03-21T12:01:41.952Z,11.66
2023-03-21T12:04:31.770Z,11.77
2023-03-21T12:07:27.609Z,11.83
2023-03-21T12:09:57.629Z,11.90
2023-03-21T12:12:39.721Z,12.00
2023-03-21T12:15:24.577Z,12.10
2023-03-21T12:17:57.324Z,12.28
2023-03-21T12:20:41.551Z,12.31
2023-03-21T12:23:15.989Z,12.34
2023-03-21T12:25:50.914Z,12.36
2023-03-21T12:28:32.977Z,12.39
2023-03-21T12:31:25.013Z,12.24
2023-03-21T12:33:57.885Z,12.25
2023-03-21T12:36:54.875Z,12.25
2023-03-21T12:39:31.403Z,12.30
2023-03-21T12:42:05.932Z,12.40
2023-03-21T12:44:37.747Z,12.48
2023-03-21T12:47:12.094Z,12.60
2023-03-21T12:49:46.451Z,12.67
2023-03-21T12:52:19.322Z,12.64
2023-03-21T12:54:53.656Z,12.68
2023-03-21T12:57:26.362Z,12.74
2023-03-21T13:00:11.448Z,12.83
2023-03-21T13:02:42.995Z,12.85
2023-03-21T13:05:27.465Z,12.76
2023-03-21T13:08:17.170Z,12.59
2023-03-21T13:10:45.272Z,12.44
2023-03-21T13:13:36.332Z,12.32
2023-03-21T13:16:30.643Z,12.19
2023-03-21T13:19:13.226Z,12.21
2023-03-21T13:21:51.768Z,12.20
2023-03-21T13:24:53.697Z,12.23
2023-03-21T13:27:29.681Z,12.12
2023-03-21T13:30:06.683Z,12.14
2023-03-21T13:32:35.725Z,12.14
2023-03-21T13:35:27.265Z,12.20
2023-03-21T13:37:58.543Z,12.13
2023-03-21T13:40:28.804Z,12.06
2023-03-21T13:42:59.738Z,12.01
2023-03-21T13:45:44.892Z,12.06
2023-03-21T13:48:29.145Z,12.03
2023-03-21T13:51:04.189Z,12.08
2023-03-21T13:53:31.997Z,12.18
2023-03-21T13:56:12.037Z,12.19
2023-03-21T13:58:45.673Z,12.24
2023-03-21T14:01:23.618Z,12.27
2023-03-21T14:03:56.935Z,12.23
2023-03-21T14:06:30.873Z,12.17
2023-03-21T14:08:58.277Z,12.18
2023-03-21T14:11:26.600Z,12.18
2023-03-21T14:13:54.310Z,12.16
2023-03-21T14:16:25.230Z,12.16
2023-03-21T14:18:56.170Z,12.20
2023-03-21T14:21:24.884Z,12.15
2023-03-21T14:23:58.009Z,12.11
2023-03-21T14:26:27.200Z,12.11
2023-03-21T14:28:54.061Z,12.15
2023-03-21T14:31:21.414Z,12.07
2023-03-21T14:33:53.948Z,12.07
2023-03-21T14:36:30.972Z,12.01
2023-03-21T14:39:13.600Z,12.01
2023-03-21T14:41:54.197Z,12.07
2023-03-21T14:44:27.607Z,12.07
2023-03-21T14:47:01.635Z,12.08
2023-03-21T14:49:31.029Z,12.00
2023-03-21T14:52:07.877Z,11.96
2023-03-21T14:54:34.506Z,11.99
2023-03-21T14:57:10.931Z,12.02
2023-03-21T14:59:40.210Z,12.00
2023-03-21T15:02:23.788Z,11.94
2023-03-21T15:04:57.177Z,11.86
2023-03-21T15:07:30.224Z,11.85
2023-03-21T15:10:03.890Z,11.90
2023-03-21T15:12:31.290Z,11.95
2023-03-21T15:14:59.820Z,11.93
2023-03-21T15:17:27.472Z,11.88
2023-03-21T15:19:53.967Z,11.92
2023-03-21T15:22:38.820Z,11.96
2023-03-21T15:25:08.934Z,12.00
2023-03-21T15:27:40.835Z,11.97
2023-03-21T15:30:18.068Z,11.95
2023-03-21T15:32:46.126Z,11.97
2023-03-21T15:35:19.744Z,11.98
2023-03-21T15:37:54.639Z,11.98
2023-03-21T15:40:24.136Z,11.94
2023-03-21T15:42:50.753Z,11.93
2023-03-21T15:45:27.781Z,11.97
2023-03-21T15:47:58.911Z,11.99
2023-03-21T15:50:32.901Z,11.92
2023-03-21T15:53:01.399Z,11.80
2023-03-21T15:55:43.423Z,11.71
2023-03-21T15:58:17.955Z,11.73
2023-03-21T16:01:01.632Z,11.73
2023-03-21T16:03:36.388Z,11.75
2023-03-21T16:06:05.836Z,11.72
2023-03-21T16:08:35.766Z,11.73
2023-03-21T16:11:20.922Z,11.75
2023-03-21T16:13:47.716Z,11.72
2023-03-21T16:16:18.082Z,11.78
2023-03-21T16:18:44.613Z,11.86
2023-03-21T16:21:16.487Z,11.94
2023-03-21T16:23:43.064Z,11.94
2023-03-21T16:26:16.518Z,11.94
2023-03-21T16:28:44.297Z,11.95
2023-03-21T16:31:14.576Z,11.97
2023-03-21T16:33:41.468Z,11.99
2023-03-21T16:36:29.435Z,11.96
2023-03-21T16:38:56.610Z,11.99
2023-03-21T16:41:25.361Z,12.04
2023-03-21T16:43:52.109Z,12.06
2023-03-21T16:46:19.803Z,12.01
2023-03-21T16:48:50.004Z,12.00
2023-03-21T16:51:19.328Z,11.95
2023-03-21T16:53:46.258Z,11.96
2023-03-21T16:56:20.309Z,11.94
2023-03-21T16:58:47.557Z,11.88
2023-03-21T17:01:19.713Z,11.88
2023-03-21T17:03:49.308Z,11.92
2023-03-21T17:06:19.191Z,11.90
2023-03-21T17:08:46.150Z,11.87
2023-03-21T17:11:19.878Z,11.90
2023-03-21T17:13:47.848Z,11.92
2023-03-21T17:16:17.082Z,11.92
2023-03-21T17:18:44.119Z,11.90
2023-03-21T17:21:17.807Z,11.94
2023-03-21T17:23:44.874Z,11.96
2023-03-21T17:26:19.324Z,11.95
2023-03-21T17:28:45.869Z,12.01
2023-03-21T17:31:17.702Z,11.93
2023-03-21T17:33:44.736Z,11.85
2023-03-21T17:36:21.149Z,11.76
2023-03-21T17:38:47.673Z,11.71
2023-03-21T17:41:19.626Z,11.68
2023-03-21T17:43:46.094Z,11.64
2023-03-21T17:46:14.782Z,11.66
2023-03-21T17:48:42.128Z,11.58
2023-03-21T17:51:12.760Z,11.55
2023-03-21T17:53:39.284Z,11.56
2023-03-21T17:56:06.763Z,11.60
2023-03-21T17:58:33.225Z,11.61
2023-03-21T18:00:59.867Z,11.52
2023-03-21T18:03:26.279Z,11.43
2023-03-21T18:05:52.830Z,11.39
2023-03-21T18:08:19.277Z,11.43
2023-03-21T18:10:46.062Z,11.44
2023-03-21T18:13:12.532Z,11.42
2023-03-21T18:15:44.108Z,11.36
2023-03-21T18:18:11.962Z,11.24
2023-03-21T18:20:54.765Z,11.24
2023-03-21T18:23:23.968Z,11.23
2023-03-21T18:25:52.222Z,11.28
2023-03-21T18:28:21.237Z,11.30
2023-03-21T18:33:36.578Z,11.23
2023-03-21T18:36:07.340Z,11.22
2023-03-21T18:38:34.441Z,11.18
2023-03-21T18:41:00.883Z,11.21
2023-03-21T18:46:15.624Z,11.13
2023-03-21T18:48:42.636Z,11.15
2023-03-21T18:51:10.017Z,11.17
2023-03-21T18:53:36.464Z,11.06
2023-03-21T18:56:03.183Z,11.04
2023-03-21T18:58:29.671Z,11.04
2023-03-21T19:00:59.423Z,11.03
2023-03-21T19:03:35.799Z,11.04
2023-03-21T19:06:04.723Z,11.04
2023-03-21T19:08:32.277Z,11.05
2023-03-21T19:11:03.339Z,11.02
2023-03-21T19:13:32.619Z,10.99
2023-03-21T19:15:59.149Z,10.99
2023-03-21T19:18:46.076Z,10.97
2023-03-21T19:21:12.027Z,10.90
2023-03-21T19:24:18.053Z,10.87
2023-03-21T19:26:26.162Z,10.86
2023-03-21T19:28:53.723Z,10.83
2023-03-21T19:31:21.322Z,10.84
2023-03-21T19:33:48.330Z,10.80
2023-03-21T19:36:21.817Z,10.73
2023-03-21T19:38:49.184Z,10.72
2023-03-21T19:41:16.236Z,10.72
2023-03-21T19:43:53.311Z,10.69
2023-03-21T19:46:23.087Z,10.69
2023-03-21T19:48:50.212Z,10.71
2023-03-21T19:51:33.143Z,10.71
2023-03-21T19:54:02.537Z,10.74
2023-03-21T19:56:31.198Z,10.76
2023-03-21T19:58:57.916Z,10.78
2023-03-21T20:01:24.984Z,10.75
2023-03-21T20:03:52.191Z,10.74
2023-03-21T20:06:19.200Z,10.72
2023-03-21T20:11:33.074Z,10.71
2023-03-21T20:14:01.890Z,10.74
2023-03-21T20:16:34.669Z,10.73
2023-03-21T20:19:03.245Z,10.73
2023-03-21T20:21:36.566Z,10.72
2023-03-21T20:24:12.622Z,10.70
2023-03-21T20:26:39.384Z,10.67
2023-03-21T20:29:43.610Z,10.64
2023-03-21T20:31:53.071Z,10.62
2023-03-21T20:34:19.658Z,10.60
2023-03-21T20:36:46.294Z,10.59
2023-03-21T20:39:12.724Z,10.57
2023-03-21T20:41:39.453Z,10.58
2023-03-21T20:44:41.685Z,10.55
2023-03-21T20:46:53.228Z,10.51
2023-03-21T20:49:22.889Z,10.51
2023-03-21T20:54:36.993Z,10.36
2023-03-21T20:57:04.666Z,10.37
2023-03-21T20:59:31.150Z,10.39
2023-03-21T21:01:58.455Z,10.35
2023-03-21T21:04:46.704Z,10.33
2023-03-21T21:07:17.428Z,10.34
2023-03-21T21:09:45.376Z,10.33
2023-03-21T21:12:14.124Z,10.36
2023-03-21T21:14:41.869Z,10.34
2023-03-21T21:17:24.427Z,10.33
2023-03-21T21:19:54.366Z,10.32
2023-03-21T21:22:20.843Z,10.31
2023-03-21T21:24:47.229Z,10.32
2023-03-21T21:27:13.789Z,10.33
2023-03-21T21:29:43.052Z,10.30
2023-03-21T21:32:09.542Z,10.28
2023-03-21T21:34:36.337Z,10.29
2023-03-21T21:37:02.997Z,10.23
2023-03-21T21:39:31.343Z,10.25
2023-03-21T21:41:57.728Z,10.30
2023-03-21T21:44:24.129Z,10.26
2023-03-21T21:46:50.581Z,10.19
2023-03-21T21:49:17.187Z,10.19
2023-03-21T21:51:47.765Z,10.25
2023-03-21T21:54:18.139Z,10.21
2023-03-21T21:56:48.457Z,10.19
2023-03-21T21:59:18.420Z,10.12
2023-03-21T22:01:46.471Z,10.17
2023-03-21T22:04:14.348Z,10.15
2023-03-21T22:06:42.191Z,10.16
2023-03-21T22:09:09.404Z,10.18
2023-03-21T22:11:37.273Z,10.20
2023-03-21T22:14:03.735Z,10.19
2023-03-21T22:16:30.319Z,10.20
2023-03-21T22:18:56.751Z,10.15
2023-03-21T22:21:23.365Z,10.11
2023-03-21T22:23:49.848Z,10.09
2023-03-21T22:26:16.506Z,10.10
2023-03-21T22:28:43.599Z,10.07
2023-03-21T22:31:12.912Z,10.08
2023-03-21T22:33:39.523Z,10.06
2023-03-21T22:36:06.260Z,10.07
2023-03-21T22:38:34.581Z,10.05
2023-03-21T22:41:05.677Z,10.05
2023-03-21T22:43:34.133Z,10.00
2023-03-21T22:46:05.337Z,10.00
2023-03-21T22:48:32.586Z,9.95
2023-03-21T22:51:00.256Z,9.94
2023-03-21T22:53:26.857Z,9.95
2023-03-21T22:55:53.509Z,9.96
2023-03-21T22:58:20.273Z,9.98
2023-03-21T23:00:47.338Z,10.00
2023-03-21T23:03:16.421Z,9.98
2023-03-21T23:05:44.376Z,10.03
2023-03-21T23:08:11.272Z,10.01
2023-03-21T23:10:39.623Z,9.99
2023-03-21T23:13:06.451Z,10.02
2023-03-21T23:15:32.959Z,9.99
2023-03-21T23:17:59.401Z,10.00
2023-03-21T23:20:25.860Z,9.97
2023-03-21T23:22:52.389Z,9.96
2023-03-21T23:25:20.538Z,9.87
2023-03-21T23:27:47.818Z,9.89
2023-03-21T23:30:14.503Z,9.90
2023-03-21T23:32:41.115Z,9.83
2023-03-21T23:35:08.087Z,9.85
2023-03-21T23:37:34.576Z,9.86
2023-03-21T23:40:01.082Z,9.83
2023-03-21T23:42:29.151Z,9.79
2023-03-21T23:44:55.665Z,9.80
2023-03-21T23:47:22.093Z,9.81
2023-03-21T23:49:49.938Z,9.82
2023-03-21T23:52:16.390Z,9.83
2023-03-21T23:54:42.975Z,9.70
2023-03-21T23:57:09.875Z,9.68
2023-03-21T23:59:36.243Z,9.71
